sensor_id;sensor_type;location;lat;lon;timestamp;P1;durP1;ratioP1;P2;durP2;ratioP2
24567;SDS011;12731;52.182;8.716;2023-02-10T00:02:22;62.78;;;33.28;;
24567;SDS011;12731;52.182;8.716;2023-02-10T00:04:49;54.85;;;32.08;;
24567;SDS011;12731;52.182;8.716;2023-02-10T00:07:18;55.60;;;32.70;;
24567;SDS011;12731;52.182;8.716;2023-02-10T00:09:45;63.55;;;33.65;;
24567;SDS011;12731;52.182;8.716;2023-02-10T00:12:12;57.25;;;34.53;;
24567;SDS011;12731;52.182;8.716;2023-02-10T00:14:39;57.55;;;34.75;;
24567;SDS011;12731;52.182;8.716;2023-02-10T00:17:06;58.78;;;34.67;;
24567;SDS011;12731;52.182;8.716;2023-02-10T00:19:32;56.83;;;33.63;;
24567;SDS011;12731;52.182;8.716;2023-02-10T00:22:00;58.17;;;33.58;;
24567;SDS011;12731;52.182;8.716;2023-02-10T00:24:27;56.67;;;34.42;;
24567;SDS011;12731;52.182;8.716;2023-02-10T00:26:53;60.83;;;35.10;;
24567;SDS011;12731;52.182;8.716;2023-02-10T00:29:20;56.00;;;34.47;;
24567;SDS011;12731;52.182;8.716;2023-02-10T00:31:46;58.15;;;34.00;;
24567;SDS011;12731;52.182;8.716;2023-02-10T00:34:14;61.67;;;33.30;;
24567;SDS011;12731;52.182;8.716;2023-02-10T00:36:41;62.55;;;34.67;;
24567;SDS011;12731;52.182;8.716;2023-02-10T00:39:11;56.83;;;34.50;;
24567;SDS011;12731;52.182;8.716;2023-02-10T00:41:41;59.58;;;34.28;;
24567;SDS011;12731;52.182;8.716;2023-02-10T00:44:08;61.13;;;34.53;;
24567;SDS011;12731;52.182;8.716;2023-02-10T00:46:35;60.58;;;35.72;;
24567;SDS011;12731;52.182;8.716;2023-02-10T00:49:02;65.10;;;36.22;;
24567;SDS011;12731;52.182;8.716;2023-02-10T00:51:28;57.75;;;34.75;;
24567;SDS011;12731;52.182;8.716;2023-02-10T00:53:54;58.20;;;34.35;;
24567;SDS011;12731;52.182;8.716;2023-02-10T00:56:21;55.75;;;34.95;;
24567;SDS011;12731;52.182;8.716;2023-02-10T00:58:47;61.47;;;34.80;;
24567;SDS011;12731;52.182;8.716;2023-02-10T01:01:14;59.67;;;35.15;;
24567;SDS011;12731;52.182;8.716;2023-02-10T01:03:41;59.88;;;35.40;;
24567;SDS011;12731;52.182;8.716;2023-02-10T01:06:07;61.95;;;36.17;;
24567;SDS011;12731;52.182;8.716;2023-02-10T01:08:34;56.70;;;34.90;;
24567;SDS011;12731;52.182;8.716;2023-02-10T01:11:01;65.82;;;37.17;;
24567;SDS011;12731;52.182;8.716;2023-02-10T01:13:29;65.30;;;36.80;;
24567;SDS011;12731;52.182;8.716;2023-02-10T01:15:56;64.90;;;35.17;;
24567;SDS011;12731;52.182;8.716;2023-02-10T01:18:22;62.58;;;34.80;;
24567;SDS011;12731;52.182;8.716;2023-02-10T01:20:49;63.03;;;35.30;;
24567;SDS011;12731;52.182;8.716;2023-02-10T01:23:17;71.38;;;35.78;;
24567;SDS011;12731;52.182;8.716;2023-02-10T01:25:44;61.88;;;34.13;;
24567;SDS011;12731;52.182;8.716;2023-02-10T01:28:11;64.90;;;36.85;;
24567;SDS011;12731;52.182;8.716;2023-02-10T01:30:37;63.97;;;36.65;;
24567;SDS011;12731;52.182;8.716;2023-02-10T01:33:04;58.80;;;34.60;;
24567;SDS011;12731;52.182;8.716;2023-02-10T01:35:30;56.53;;;34.35;;
24567;SDS011;12731;52.182;8.716;2023-02-10T01:37:57;60.45;;;34.42;;
24567;SDS011;12731;52.182;8.716;2023-02-10T01:40:24;63.90;;;36.88;;
24567;SDS011;12731;52.182;8.716;2023-02-10T01:42:53;61.20;;;34.78;;
24567;SDS011;12731;52.182;8.716;2023-02-10T01:45:32;56.20;;;36.55;;
24567;SDS011;12731;52.182;8.716;2023-02-10T01:48:02;69.45;;;37.10;;
24567;SDS011;12731;52.182;8.716;2023-02-10T01:50:51;56.55;;;35.67;;
24567;SDS011;12731;52.182;8.716;2023-02-10T01:53:16;59.53;;;34.13;;
24567;SDS011;12731;52.182;8.716;2023-02-10T01:55:44;59.47;;;33.42;;
24567;SDS011;12731;52.182;8.716;2023-02-10T01:58:13;67.28;;;35.90;;
24567;SDS011;12731;52.182;8.716;2023-02-10T02:00:41;59.80;;;35.60;;
24567;SDS011;12731;52.182;8.716;2023-02-10T02:03:10;60.80;;;34.55;;
24567;SDS011;12731;52.182;8.716;2023-02-10T02:05:37;62.50;;;34.85;;
24567;SDS011;12731;52.182;8.716;2023-02-10T02:08:07;63.35;;;36.00;;
24567;SDS011;12731;52.182;8.716;2023-02-10T02:13:16;64.35;;;36.17;;
24567;SDS011;12731;52.182;8.716;2023-02-10T02:15:55;61.45;;;34.28;;
24567;SDS011;12731;52.182;8.716;2023-02-10T02:24:18;62.20;;;34.92;;
24567;SDS011;12731;52.182;8.716;2023-02-10T02:32:45;64.25;;;35.33;;
24567;SDS011;12731;52.182;8.716;2023-02-10T02:35:28;67.00;;;37.13;;
24567;SDS011;12731;52.182;8.716;2023-02-10T02:37:58;65.53;;;37.50;;
24567;SDS011;12731;52.182;8.716;2023-02-10T02:40:25;64.10;;;38.00;;
24567;SDS011;12731;52.182;8.716;2023-02-10T02:42:51;61.60;;;38.10;;
24567;SDS011;12731;52.182;8.716;2023-02-10T02:45:24;71.03;;;38.65;;
24567;SDS011;12731;52.182;8.716;2023-02-10T02:48:03;67.07;;;38.47;;
24567;SDS011;12731;52.182;8.716;2023-02-10T02:56:19;73.28;;;41.13;;
24567;SDS011;12731;52.182;8.716;2023-02-10T02:59:13;67.32;;;38.83;;
24567;SDS011;12731;52.182;8.716;2023-02-10T03:01:51;68.10;;;38.95;;
24567;SDS011;12731;52.182;8.716;2023-02-10T03:04:21;67.72;;;38.40;;
24567;SDS011;12731;52.182;8.716;2023-02-10T03:06:48;66.30;;;38.92;;
24567;SDS011;12731;52.182;8.716;2023-02-10T03:09:15;70.20;;;38.78;;
24567;SDS011;12731;52.182;8.716;2023-02-10T03:11:42;70.90;;;38.97;;
24567;SDS011;12731;52.182;8.716;2023-02-10T03:14:09;64.30;;;37.15;;
24567;SDS011;12731;52.182;8.716;2023-02-10T03:16:36;71.03;;;37.85;;
24567;SDS011;12731;52.182;8.716;2023-02-10T03:19:03;66.18;;;37.85;;
24567;SDS011;12731;52.182;8.716;2023-02-10T03:21:29;66.82;;;36.85;;
24567;SDS011;12731;52.182;8.716;2023-02-10T03:23:55;69.15;;;39.15;;
24567;SDS011;12731;52.182;8.716;2023-02-10T03:26:22;74.63;;;40.55;;
24567;SDS011;12731;52.182;8.716;2023-02-10T03:28:50;67.57;;;38.13;;
24567;SDS011;12731;52.182;8.716;2023-02-10T03:31:16;79.53;;;40.40;;
24567;SDS011;12731;52.182;8.716;2023-02-10T03:33:43;73.50;;;40.30;;
24567;SDS011;12731;52.182;8.716;2023-02-10T03:36:09;70.53;;;40.58;;
24567;SDS011;12731;52.182;8.716;2023-02-10T03:38:36;70.60;;;39.35;;
24567;SDS011;12731;52.182;8.716;2023-02-10T03:41:02;68.15;;;41.15;;
24567;SDS011;12731;52.182;8.716;2023-02-10T03:43:29;71.60;;;39.60;;
24567;SDS011;12731;52.182;8.716;2023-02-10T03:45:58;70.32;;;40.47;;
24567;SDS011;12731;52.182;8.716;2023-02-10T03:48:28;81.63;;;41.25;;
24567;SDS011;12731;52.182;8.716;2023-02-10T03:50:59;75.57;;;41.35;;
24567;SDS011;12731;52.182;8.716;2023-02-10T03:53:26;75.93;;;39.38;;
24567;SDS011;12731;52.182;8.716;2023-02-10T03:55:53;77.65;;;40.72;;
24567;SDS011;12731;52.182;8.716;2023-02-10T03:58:19;72.30;;;40.17;;
24567;SDS011;12731;52.182;8.716;2023-02-10T04:00:46;76.15;;;40.88;;
24567;SDS011;12731;52.182;8.716;2023-02-10T04:03:13;80.57;;;41.08;;
24567;SDS011;12731;52.182;8.716;2023-02-10T04:05:40;78.57;;;41.88;;
24567;SDS011;12731;52.182;8.716;2023-02-10T04:08:06;84.13;;;43.00;;
24567;SDS011;12731;52.182;8.716;2023-02-10T04:10:34;77.00;;;42.42;;
24567;SDS011;12731;52.182;8.716;2023-02-10T04:13:00;81.28;;;43.83;;
24567;SDS011;12731;52.182;8.716;2023-02-10T04:15:27;82.28;;;43.08;;
24567;SDS011;12731;52.182;8.716;2023-02-10T04:17:53;81.07;;;42.30;;
24567;SDS011;12731;52.182;8.716;2023-02-10T04:20:22;81.97;;;45.35;;
24567;SDS011;12731;52.182;8.716;2023-02-10T04:22:49;81.55;;;44.97;;
24567;SDS011;12731;52.182;8.716;2023-02-10T04:25:16;86.13;;;43.60;;
24567;SDS011;12731;52.182;8.716;2023-02-10T04:27:43;91.20;;;44.05;;
24567;SDS011;12731;52.182;8.716;2023-02-10T04:30:09;88.18;;;44.67;;
24567;SDS011;12731;52.182;8.716;2023-02-10T04:32:36;84.40;;;44.40;;
24567;SDS011;12731;52.182;8.716;2023-02-10T04:35:02;87.32;;;45.13;;
24567;SDS011;12731;52.182;8.716;2023-02-10T04:37:29;88.38;;;47.08;;
24567;SDS011;12731;52.182;8.716;2023-02-10T04:39:56;82.15;;;45.28;;
24567;SDS011;12731;52.182;8.716;2023-02-10T04:42:22;89.07;;;46.05;;
24567;SDS011;12731;52.182;8.716;2023-02-10T04:44:56;91.82;;;47.70;;
24567;SDS011;12731;52.182;8.716;2023-02-10T04:47:27;95.78;;;48.35;;
24567;SDS011;12731;52.182;8.716;2023-02-10T04:49:53;92.13;;;47.95;;
24567;SDS011;12731;52.182;8.716;2023-02-10T04:52:23;96.22;;;48.55;;
24567;SDS011;12731;52.182;8.716;2023-02-10T04:54:49;94.28;;;50.05;;
24567;SDS011;12731;52.182;8.716;2023-02-10T04:57:16;105.88;;;53.13;;
24567;SDS011;12731;52.182;8.716;2023-02-10T04:59:42;122.25;;;63.90;;
24567;SDS011;12731;52.182;8.716;2023-02-10T05:02:09;125.40;;;69.50;;
24567;SDS011;12731;52.182;8.716;2023-02-10T05:04:35;123.22;;;65.32;;
24567;SDS011;12731;52.182;8.716;2023-02-10T05:07:02;126.32;;;66.45;;
24567;SDS011;12731;52.182;8.716;2023-02-10T05:09:28;118.78;;;60.97;;
24567;SDS011;12731;52.182;8.716;2023-02-10T05:11:55;116.65;;;59.88;;
24567;SDS011;12731;52.182;8.716;2023-02-10T05:14:22;107.30;;;56.35;;
24567;SDS011;12731;52.182;8.716;2023-02-10T05:16:48;107.05;;;55.63;;
24567;SDS011;12731;52.182;8.716;2023-02-10T05:19:15;101.05;;;53.92;;
24567;SDS011;12731;52.182;8.716;2023-02-10T05:21:41;107.05;;;53.65;;
24567;SDS011;12731;52.182;8.716;2023-02-10T05:24:07;100.43;;;54.83;;
24567;SDS011;12731;52.182;8.716;2023-02-10T05:26:34;111.95;;;56.13;;
24567;SDS011;12731;52.182;8.716;2023-02-10T05:29:00;106.82;;;55.72;;
24567;SDS011;12731;52.182;8.716;2023-02-10T05:31:27;106.88;;;54.55;;
24567;SDS011;12731;52.182;8.716;2023-02-10T05:33:53;108.32;;;54.90;;
24567;SDS011;12731;52.182;8.716;2023-02-10T05:36:20;105.03;;;56.50;;
24567;SDS011;12731;52.182;8.716;2023-02-10T05:38:47;102.78;;;55.20;;
24567;SDS011;12731;52.182;8.716;2023-02-10T05:41:32;103.25;;;55.90;;
24567;SDS011;12731;52.182;8.716;2023-02-10T05:44:01;104.82;;;56.38;;
24567;SDS011;12731;52.182;8.716;2023-02-10T05:46:27;107.18;;;54.92;;
24567;SDS011;12731;52.182;8.716;2023-02-10T05:48:54;123.47;;;58.10;;
24567;SDS011;12731;52.182;8.716;2023-02-10T05:51:20;107.32;;;56.30;;
24567;SDS011;12731;52.182;8.716;2023-02-10T05:53:46;112.25;;;56.95;;
24567;SDS011;12731;52.182;8.716;2023-02-10T05:56:13;114.95;;;58.92;;
24567;SDS011;12731;52.182;8.716;2023-02-10T05:58:42;117.38;;;57.95;;
24567;SDS011;12731;52.182;8.716;2023-02-10T06:01:09;113.90;;;57.85;;
24567;SDS011;12731;52.182;8.716;2023-02-10T06:03:36;114.30;;;57.42;;
24567;SDS011;12731;52.182;8.716;2023-02-10T06:06:03;119.00;;;59.13;;
24567;SDS011;12731;52.182;8.716;2023-02-10T06:08:29;112.90;;;57.92;;
24567;SDS011;12731;52.182;8.716;2023-02-10T06:10:56;107.60;;;58.03;;
24567;SDS011;12731;52.182;8.716;2023-02-10T06:13:22;115.18;;;58.90;;
24567;SDS011;12731;52.182;8.716;2023-02-10T06:15:49;107.13;;;58.08;;
24567;SDS011;12731;52.182;8.716;2023-02-10T06:18:16;118.07;;;58.60;;
24567;SDS011;12731;52.182;8.716;2023-02-10T06:20:44;116.28;;;59.47;;
24567;SDS011;12731;52.182;8.716;2023-02-10T06:23:14;109.73;;;59.43;;
24567;SDS011;12731;52.182;8.716;2023-02-10T06:25:40;113.35;;;57.58;;
24567;SDS011;12731;52.182;8.716;2023-02-10T06:28:07;110.25;;;58.45;;
24567;SDS011;12731;52.182;8.716;2023-02-10T06:30:33;114.35;;;58.40;;
24567;SDS011;12731;52.182;8.716;2023-02-10T06:33:00;120.60;;;59.30;;
24567;SDS011;12731;52.182;8.716;2023-02-10T06:35:27;116.28;;;60.75;;
24567;SDS011;12731;52.182;8.716;2023-02-10T06:37:53;113.55;;;58.22;;
24567;SDS011;12731;52.182;8.716;2023-02-10T06:40:20;121.72;;;60.00;;
24567;SDS011;12731;52.182;8.716;2023-02-10T06:42:47;118.95;;;59.15;;
24567;SDS011;12731;52.182;8.716;2023-02-10T06:45:14;116.18;;;58.78;;
24567;SDS011;12731;52.182;8.716;2023-02-10T06:47:40;123.93;;;58.75;;
24567;SDS011;12731;52.182;8.716;2023-02-10T06:50:07;121.88;;;60.47;;
24567;SDS011;12731;52.182;8.716;2023-02-10T06:52:34;119.47;;;59.70;;
24567;SDS011;12731;52.182;8.716;2023-02-10T06:55:04;125.07;;;59.20;;
24567;SDS011;12731;52.182;8.716;2023-02-10T06:57:32;126.18;;;59.78;;
24567;SDS011;12731;52.182;8.716;2023-02-10T06:59:59;123.75;;;61.15;;
24567;SDS011;12731;52.182;8.716;2023-02-10T07:02:28;135.07;;;61.28;;
24567;SDS011;12731;52.182;8.716;2023-02-10T07:04:55;123.38;;;61.00;;
24567;SDS011;12731;52.182;8.716;2023-02-10T07:07:22;130.02;;;63.25;;
24567;SDS011;12731;52.182;8.716;2023-02-10T07:09:48;142.02;;;64.75;;
24567;SDS011;12731;52.182;8.716;2023-02-10T07:12:15;144.25;;;65.07;;
24567;SDS011;12731;52.182;8.716;2023-02-10T07:14:41;132.63;;;62.00;;
24567;SDS011;12731;52.182;8.716;2023-02-10T07:17:09;132.13;;;62.72;;
24567;SDS011;12731;52.182;8.716;2023-02-10T07:19:36;138.60;;;63.85;;
24567;SDS011;12731;52.182;8.716;2023-02-10T07:22:02;137.27;;;62.95;;
24567;SDS011;12731;52.182;8.716;2023-02-10T07:24:32;131.25;;;59.90;;
24567;SDS011;12731;52.182;8.716;2023-02-10T07:26:59;121.88;;;58.25;;
24567;SDS011;12731;52.182;8.716;2023-02-10T07:29:25;126.90;;;60.63;;
24567;SDS011;12731;52.182;8.716;2023-02-10T07:31:52;122.10;;;60.22;;
24567;SDS011;12731;52.182;8.716;2023-02-10T07:34:18;130.43;;;59.40;;
24567;SDS011;12731;52.182;8.716;2023-02-10T07:36:47;128.68;;;61.17;;
24567;SDS011;12731;52.182;8.716;2023-02-10T07:39:23;120.47;;;60.03;;
24567;SDS011;12731;52.182;8.716;2023-02-10T07:41:50;129.73;;;59.35;;
24567;SDS011;12731;52.182;8.716;2023-02-10T07:44:16;129.85;;;58.42;;
24567;SDS011;12731;52.182;8.716;2023-02-10T07:46:43;124.18;;;58.30;;
24567;SDS011;12731;52.182;8.716;2023-02-10T07:49:09;131.25;;;59.28;;
24567;SDS011;12731;52.182;8.716;2023-02-10T07:51:36;135.65;;;59.78;;
24567;SDS011;12731;52.182;8.716;2023-02-10T07:54:03;129.43;;;59.45;;
24567;SDS011;12731;52.182;8.716;2023-02-10T07:56:29;133.80;;;60.20;;
24567;SDS011;12731;52.182;8.716;2023-02-10T07:58:56;142.82;;;62.50;;
24567;SDS011;12731;52.182;8.716;2023-02-10T08:01:22;143.18;;;60.15;;
24567;SDS011;12731;52.182;8.716;2023-02-10T08:03:48;135.80;;;61.75;;
24567;SDS011;12731;52.182;8.716;2023-02-10T08:06:22;143.82;;;62.28;;
24567;SDS011;12731;52.182;8.716;2023-02-10T08:08:49;138.82;;;61.13;;
24567;SDS011;12731;52.182;8.716;2023-02-10T08:11:16;143.00;;;62.28;;
24567;SDS011;12731;52.182;8.716;2023-02-10T08:13:42;150.80;;;64.00;;
24567;SDS011;12731;52.182;8.716;2023-02-10T08:16:09;146.23;;;64.55;;
24567;SDS011;12731;52.182;8.716;2023-02-10T08:18:37;146.77;;;65.38;;
24567;SDS011;12731;52.182;8.716;2023-02-10T08:21:04;154.85;;;66.18;;
24567;SDS011;12731;52.182;8.716;2023-02-10T08:23:31;159.13;;;67.40;;
24567;SDS011;12731;52.182;8.716;2023-02-10T08:25:57;163.30;;;68.50;;
24567;SDS011;12731;52.182;8.716;2023-02-10T08:28:24;151.50;;;67.10;;
24567;SDS011;12731;52.182;8.716;2023-02-10T08:30:50;156.05;;;68.50;;
24567;SDS011;12731;52.182;8.716;2023-02-10T08:33:17;157.85;;;67.25;;
24567;SDS011;12731;52.182;8.716;2023-02-10T08:35:43;152.88;;;67.50;;
24567;SDS011;12731;52.182;8.716;2023-02-10T08:38:10;146.45;;;65.55;;
24567;SDS011;12731;52.182;8.716;2023-02-10T08:40:37;152.50;;;66.35;;
24567;SDS011;12731;52.182;8.716;2023-02-10T08:43:03;154.32;;;67.45;;
24567;SDS011;12731;52.182;8.716;2023-02-10T08:45:30;143.40;;;65.25;;
24567;SDS011;12731;52.182;8.716;2023-02-10T08:47:57;144.00;;;63.15;;
24567;SDS011;12731;52.182;8.716;2023-02-10T08:50:23;145.95;;;64.65;;
24567;SDS011;12731;52.182;8.716;2023-02-10T08:52:49;137.02;;;62.53;;
24567;SDS011;12731;52.182;8.716;2023-02-10T08:55:16;131.40;;;61.17;;
24567;SDS011;12731;52.182;8.716;2023-02-10T08:57:42;135.13;;;62.50;;
24567;SDS011;12731;52.182;8.716;2023-02-10T09:00:09;137.18;;;61.40;;
24567;SDS011;12731;52.182;8.716;2023-02-10T09:02:36;129.95;;;60.58;;
24567;SDS011;12731;52.182;8.716;2023-02-10T09:05:02;128.13;;;59.15;;
24567;SDS011;12731;52.182;8.716;2023-02-10T09:07:36;123.38;;;58.22;;
24567;SDS011;12731;52.182;8.716;2023-02-10T09:10:02;121.65;;;60.30;;
24567;SDS011;12731;52.182;8.716;2023-02-10T09:12:29;128.43;;;59.45;;
24567;SDS011;12731;52.182;8.716;2023-02-10T09:14:56;126.30;;;60.38;;
24567;SDS011;12731;52.182;8.716;2023-02-10T09:17:22;132.23;;;59.33;;
24567;SDS011;12731;52.182;8.716;2023-02-10T09:19:49;137.13;;;62.30;;
24567;SDS011;12731;52.182;8.716;2023-02-10T09:22:15;142.00;;;62.53;;
24567;SDS011;12731;52.182;8.716;2023-02-10T09:24:43;146.60;;;64.07;;
24567;SDS011;12731;52.182;8.716;2023-02-10T09:27:14;147.30;;;62.20;;
24567;SDS011;12731;52.182;8.716;2023-02-10T09:29:41;155.05;;;66.95;;
24567;SDS011;12731;52.182;8.716;2023-02-10T09:32:08;141.45;;;62.92;;
24567;SDS011;12731;52.182;8.716;2023-02-10T09:34:34;148.75;;;66.93;;
24567;SDS011;12731;52.182;8.716;2023-02-10T09:37:01;155.93;;;67.07;;
24567;SDS011;12731;52.182;8.716;2023-02-10T09:39:28;151.70;;;67.30;;
24567;SDS011;12731;52.182;8.716;2023-02-10T09:41:58;155.20;;;66.82;;
24567;SDS011;12731;52.182;8.716;2023-02-10T09:44:31;149.13;;;65.20;;
24567;SDS011;12731;52.182;8.716;2023-02-10T09:58:01;131.65;;;65.28;;
24567;SDS011;12731;52.182;8.716;2023-02-10T10:00:49;131.45;;;63.83;;
24567;SDS011;12731;52.182;8.716;2023-02-10T10:03:41;133.30;;;63.35;;
24567;SDS011;12731;52.182;8.716;2023-02-10T10:06:13;137.98;;;63.35;;
24567;SDS011;12731;52.182;8.716;2023-02-10T10:08:54;134.02;;;64.18;;
24567;SDS011;12731;52.182;8.716;2023-02-10T10:11:36;125.07;;;60.92;;
24567;SDS011;12731;52.182;8.716;2023-02-10T10:14:04;121.15;;;61.05;;
24567;SDS011;12731;52.182;8.716;2023-02-10T10:26:02;121.50;;;62.53;;
24567;SDS011;12731;52.182;8.716;2023-02-10T10:29:06;122.78;;;61.95;;
24567;SDS011;12731;52.182;8.716;2023-02-10T10:31:35;124.78;;;62.65;;
24567;SDS011;12731;52.182;8.716;2023-02-10T10:36:34;122.25;;;62.53;;
24567;SDS011;12731;52.182;8.716;2023-02-10T10:39:13;122.03;;;64.22;;
24567;SDS011;12731;52.182;8.716;2023-02-10T10:41:43;121.32;;;63.47;;
24567;SDS011;12731;52.182;8.716;2023-02-10T10:44:11;115.45;;;61.67;;
24567;SDS011;12731;52.182;8.716;2023-02-10T10:46:40;128.02;;;65.20;;
24567;SDS011;12731;52.182;8.716;2023-02-10T10:49:12;120.78;;;63.78;;
24567;SDS011;12731;52.182;8.716;2023-02-10T10:51:38;120.85;;;63.85;;
24567;SDS011;12731;52.182;8.716;2023-02-10T10:54:05;118.25;;;61.65;;
24567;SDS011;12731;52.182;8.716;2023-02-10T10:56:54;108.60;;;60.33;;
24567;SDS011;12731;52.182;8.716;2023-02-10T10:59:58;108.40;;;55.67;;
24567;SDS011;12731;52.182;8.716;2023-02-10T11:02:18;109.97;;;55.55;;
24567;SDS011;12731;52.182;8.716;2023-02-10T11:04:46;99.68;;;54.15;;
24567;SDS011;12731;52.182;8.716;2023-02-10T11:07:25;104.78;;;55.70;;
24567;SDS011;12731;52.182;8.716;2023-02-10T11:09:53;98.80;;;54.00;;
24567;SDS011;12731;52.182;8.716;2023-02-10T11:12:24;95.57;;;52.20;;
24567;SDS011;12731;52.182;8.716;2023-02-10T11:14:54;96.45;;;51.30;;
24567;SDS011;12731;52.182;8.716;2023-02-10T11:17:33;97.68;;;51.63;;
24567;SDS011;12731;52.182;8.716;2023-02-10T11:23:01;94.68;;;51.40;;
24567;SDS011;12731;52.182;8.716;2023-02-10T11:25:39;97.15;;;51.20;;
24567;SDS011;12731;52.182;8.716;2023-02-10T11:28:15;102.85;;;53.88;;
24567;SDS011;12731;52.182;8.716;2023-02-10T11:30:45;102.47;;;54.47;;
24567;SDS011;12731;52.182;8.716;2023-02-10T11:33:18;104.78;;;57.55;;
24567;SDS011;12731;52.182;8.716;2023-02-10T11:35:52;102.80;;;58.45;;
24567;SDS011;12731;52.182;8.716;2023-02-10T11:38:24;100.93;;;56.05;;
24567;SDS011;12731;52.182;8.716;2023-02-10T11:40:55;101.63;;;55.20;;
24567;SDS011;12731;52.182;8.716;2023-02-10T11:43:26;73.97;;;42.45;;
24567;SDS011;12731;52.182;8.716;2023-02-10T11:45:57;100.80;;;55.08;;
24567;SDS011;12731;52.182;8.716;2023-02-10T11:48:26;94.15;;;54.47;;
24567;SDS011;12731;52.182;8.716;2023-02-10T11:51:01;93.55;;;53.17;;
24567;SDS011;12731;52.182;8.716;2023-02-10T11:53:29;92.90;;;53.03;;
24567;SDS011;12731;52.182;8.716;2023-02-10T12:01:59;81.47;;;47.95;;
24567;SDS011;12731;52.182;8.716;2023-02-10T12:07:35;74.00;;;44.05;;
24567;SDS011;12731;52.182;8.716;2023-02-10T12:10:11;69.30;;;43.85;;
24567;SDS011;12731;52.182;8.716;2023-02-10T12:12:47;70.03;;;41.92;;
24567;SDS011;12731;52.182;8.716;2023-02-10T12:15:34;68.88;;;42.45;;
24567;SDS011;12731;52.182;8.716;2023-02-10T12:18:11;69.57;;;42.67;;
24567;SDS011;12731;52.182;8.716;2023-02-10T12:26:54;68.63;;;40.97;;
24567;SDS011;12731;52.182;8.716;2023-02-10T12:29:47;75.55;;;41.05;;
24567;SDS011;12731;52.182;8.716;2023-02-10T12:32:43;64.22;;;37.95;;
24567;SDS011;12731;52.182;8.716;2023-02-10T12:41:11;52.20;;;32.95;;
24567;SDS011;12731;52.182;8.716;2023-02-10T12:43:46;53.58;;;31.73;;
24567;SDS011;12731;52.182;8.716;2023-02-10T12:46:36;46.95;;;29.13;;
24567;SDS011;12731;52.182;8.716;2023-02-10T13:00:00;48.58;;;29.15;;
24567;SDS011;12731;52.182;8.716;2023-02-10T13:02:32;49.53;;;29.08;;
24567;SDS011;12731;52.182;8.716;2023-02-10T13:05:09;44.08;;;28.08;;
24567;SDS011;12731;52.182;8.716;2023-02-10T13:12:44;45.33;;;28.88;;
24567;SDS011;12731;52.182;8.716;2023-02-10T13:17:42;44.45;;;27.50;;
24567;SDS011;12731;52.182;8.716;2023-02-10T13:31:41;46.67;;;27.17;;
24567;SDS011;12731;52.182;8.716;2023-02-10T13:34:19;44.72;;;26.23;;
24567;SDS011;12731;52.182;8.716;2023-02-10T13:36:50;41.38;;;26.08;;
24567;SDS011;12731;52.182;8.716;2023-02-10T13:39:37;43.00;;;26.27;;
24567;SDS011;12731;52.182;8.716;2023-02-10T13:45:01;43.57;;;27.90;;
24567;SDS011;12731;52.182;8.716;2023-02-10T13:53:29;40.90;;;25.95;;
24567;SDS011;12731;52.182;8.716;2023-02-10T13:56:02;46.17;;;28.20;;
24567;SDS011;12731;52.182;8.716;2023-02-10T14:01:34;40.30;;;26.30;;
24567;SDS011;12731;52.182;8.716;2023-02-10T14:06:45;42.92;;;26.52;;
24567;SDS011;12731;52.182;8.716;2023-02-10T14:11:55;43.17;;;26.45;;
24567;SDS011;12731;52.182;8.716;2023-02-10T14:14:34;46.15;;;27.35;;
24567;SDS011;12731;52.182;8.716;2023-02-10T14:19:45;43.83;;;27.30;;
24567;SDS011;12731;52.182;8.716;2023-02-10T14:24:53;44.45;;;28.55;;
24567;SDS011;12731;52.182;8.716;2023-02-10T14:27:21;46.38;;;27.77;;
24567;SDS011;12731;52.182;8.716;2023-02-10T14:29:54;42.22;;;28.30;;
24567;SDS011;12731;52.182;8.716;2023-02-10T14:32:22;42.08;;;27.23;;
24567;SDS011;12731;52.182;8.716;2023-02-10T14:34:59;46.08;;;27.73;;
24567;SDS011;12731;52.182;8.716;2023-02-10T14:37:27;45.08;;;27.45;;
24567;SDS011;12731;52.182;8.716;2023-02-10T14:39:57;42.60;;;26.52;;
24567;SDS011;12731;52.182;8.716;2023-02-10T14:42:31;42.53;;;25.83;;
24567;SDS011;12731;52.182;8.716;2023-02-10T14:44:58;45.05;;;27.65;;
24567;SDS011;12731;52.182;8.716;2023-02-10T14:47:36;41.33;;;26.77;;
24567;SDS011;12731;52.182;8.716;2023-02-10T14:50:04;44.45;;;27.58;;
24567;SDS011;12731;52.182;8.716;2023-02-10T14:52:33;41.90;;;26.98;;
24567;SDS011;12731;52.182;8.716;2023-02-10T14:58:10;41.40;;;26.80;;
24567;SDS011;12731;52.182;8.716;2023-02-10T15:00:40;43.88;;;28.10;;
24567;SDS011;12731;52.182;8.716;2023-02-10T15:03:09;46.47;;;28.27;;
24567;SDS011;12731;52.182;8.716;2023-02-10T15:05:39;45.70;;;28.05;;
24567;SDS011;12731;52.182;8.716;2023-02-10T15:08:13;46.30;;;28.08;;
24567;SDS011;12731;52.182;8.716;2023-02-10T15:13:09;48.50;;;28.17;;
24567;SDS011;12731;52.182;8.716;2023-02-10T15:15:39;49.88;;;26.73;;
24567;SDS011;12731;52.182;8.716;2023-02-10T15:18:12;45.43;;;27.37;;
24567;SDS011;12731;52.182;8.716;2023-02-10T15:20:49;44.65;;;27.55;;
24567;SDS011;12731;52.182;8.716;2023-02-10T15:23:20;49.08;;;29.60;;
24567;SDS011;12731;52.182;8.716;2023-02-10T15:26:04;49.85;;;29.55;;
24567;SDS011;12731;52.182;8.716;2023-02-10T15:31:40;47.65;;;27.42;;
24567;SDS011;12731;52.182;8.716;2023-02-10T15:34:22;44.30;;;27.42;;
24567;SDS011;12731;52.182;8.716;2023-02-10T15:37:01;45.25;;;28.13;;
24567;SDS011;12731;52.182;8.716;2023-02-10T15:39:33;50.15;;;29.83;;
24567;SDS011;12731;52.182;8.716;2023-02-10T15:44:40;50.38;;;29.23;;
24567;SDS011;12731;52.182;8.716;2023-02-10T15:47:17;40.47;;;23.63;;
24567;SDS011;12731;52.182;8.716;2023-02-10T15:49:47;54.00;;;29.45;;
24567;SDS011;12731;52.182;8.716;2023-02-10T15:54:55;52.75;;;31.88;;
24567;SDS011;12731;52.182;8.716;2023-02-10T15:57:22;57.28;;;30.80;;
24567;SDS011;12731;52.182;8.716;2023-02-10T15:59:49;53.78;;;31.45;;
24567;SDS011;12731;52.182;8.716;2023-02-10T16:02:17;51.88;;;30.98;;
24567;SDS011;12731;52.182;8.716;2023-02-10T16:04:44;54.00;;;30.80;;
24567;SDS011;12731;52.182;8.716;2023-02-10T16:07:20;52.72;;;31.02;;
24567;SDS011;12731;52.182;8.716;2023-02-10T16:09:50;52.20;;;31.13;;
24567;SDS011;12731;52.182;8.716;2023-02-10T16:12:17;53.15;;;30.00;;
24567;SDS011;12731;52.182;8.716;2023-02-10T16:14:43;48.90;;;29.38;;
24567;SDS011;12731;52.182;8.716;2023-02-10T16:17:10;55.38;;;30.98;;
24567;SDS011;12731;52.182;8.716;2023-02-10T16:19:40;53.35;;;30.83;;
24567;SDS011;12731;52.182;8.716;2023-02-10T16:22:08;47.78;;;30.15;;
24567;SDS011;12731;52.182;8.716;2023-02-10T16:24:35;55.88;;;31.05;;
24567;SDS011;12731;52.182;8.716;2023-02-10T16:27:02;51.13;;;30.75;;
24567;SDS011;12731;52.182;8.716;2023-02-10T16:29:29;48.78;;;30.50;;
24567;SDS011;12731;52.182;8.716;2023-02-10T16:31:56;56.75;;;31.50;;
24567;SDS011;12731;52.182;8.716;2023-02-10T16:34:23;54.28;;;32.00;;
24567;SDS011;12731;52.182;8.716;2023-02-10T16:36:49;52.78;;;32.22;;
24567;SDS011;12731;52.182;8.716;2023-02-10T16:39:17;54.20;;;32.97;;
24567;SDS011;12731;52.182;8.716;2023-02-10T16:41:46;58.05;;;33.10;;
24567;SDS011;12731;52.182;8.716;2023-02-10T16:44:13;51.90;;;31.55;;